Time;durP1;ratioP1;P1;durP2;ratioP2;P2;SDS_P1;SDS_P2;PMS_P1;PMS_P2;Temp;Humidity;BMP_temperature;BMP_pressure;BME280_temperature;BME280_humidity;BME280_pressure;Samples;Min_cycle;Max_cycle;Signal;HPM_P1;HPM_P2
2022/09/08 00:01:45;;;;;;;125.75;53.30;;;15.90;99.90;;;;;;4954450;29;20043;-75
2022/09/08 00:04:10;;;;;;;136.73;55.38;;;15.90;99.90;;;;;;4937445;29;20078;-75
2022/09/08 00:06:36;;;;;;;128.17;54.30;;;15.90;99.90;;;;;;4921724;29;20196;-81
2022/09/08 00:09:04;;;;;;;130.60;55.50;;;15.80;99.90;;;;;;4937200;29;20058;-75
2022/09/08 00:11:32;;;;;;;140.48;56.83;;;15.80;99.90;;;;;;4954061;28;20062;-75
2022/09/08 00:14:04;;;;;;;133.93;56.72;;;15.80;99.90;;;;;;4953984;29;20581;-75
2022/09/08 00:16:30;;;;;;;133.77;56.30;;;15.80;99.90;;;;;;4954152;29;20046;-76
2022/09/08 00:18:56;;;;;;;132.52;56.53;;;15.80;99.90;;;;;;4937047;29;20480;-73
2022/09/08 00:21:24;;;;;;;146.20;58.60;;;15.80;99.90;;;;;;4921675;29;20089;-75
2022/09/08 00:23:50;;;;;;;137.60;57.45;;;15.80;99.90;;;;;;4953392;28;20087;-75
2022/09/08 00:26:18;;;;;;;130.98;57.13;;;15.80;99.90;;;;;;4954332;29;20094;-74
2022/09/08 00:28:43;;;;;;;138.30;58.35;;;15.80;99.90;;;;;;4921463;29;20074;-76
2022/09/08 00:31:10;;;;;;;142.88;58.85;;;15.80;99.90;;;;;;4954832;29;20464;-75
2022/09/08 00:33:35;;;;;;;143.00;58.53;;;15.80;99.90;;;;;;4921686;29;20079;-75
2022/09/08 00:36:03;;;;;;;140.20;59.70;;;15.80;99.90;;;;;;4954956;29;20051;-75
2022/09/08 00:38:30;;;;;;;144.32;59.13;;;15.80;99.90;;;;;;4936707;29;20567;-78
2022/09/08 00:40:57;;;;;;;149.35;59.47;;;15.90;99.90;;;;;;4937496;28;20062;-75
2022/09/08 00:43:34;;;;;;;;;;;15.90;99.90;;;;;;4954723;28;20077;-75
2022/09/08 00:46:22;;;;;;;148.43;56.25;;;16.00;99.90;;;;;;4954596;29;19925;-75
2022/09/08 00:49:10;;;;;;;147.50;61.17;;;16.00;99.90;;;;;;4954431;29;20070;-74
2022/09/08 00:51:41;;;;;;;137.50;59.08;;;16.00;99.90;;;;;;4937390;29;20042;-76
2022/09/08 00:54:09;;;;;;;140.98;61.08;;;16.10;99.90;;;;;;4937460;29;20159;-75
2022/09/08 00:56:35;;;;;;;150.75;62.67;;;16.10;99.90;;;;;;4921451;29;20047;-74
2022/09/08 00:59:02;;;;;;;145.52;60.85;;;16.10;99.90;;;;;;4953945;28;20132;-76
2022/09/08 01:01:30;;;;;;;149.10;64.25;;;16.20;99.90;;;;;;4957236;28;20399;-74
2022/09/08 01:03:56;;;;;;;142.77;61.72;;;16.10;99.90;;;;;;4958428;28;20388;-75
2022/09/08 01:13:01;;;;;;;143.35;60.92;;;16.20;99.90;;;;;;4897909;29;20099;-75
2022/09/08 01:15:28;;;;;;;147.45;60.60;;;16.30;99.90;;;;;;4953773;29;20455;-75
2022/09/08 01:17:55;;;;;;;;;;;16.30;99.90;;;;;;4941505;29;20471;-75
2022/09/08 01:20:47;;;;;;;152.57;60.60;;;16.30;99.90;;;;;;4958298;29;19926;-75
2022/09/08 01:23:50;;;;;;;157.13;60.65;;;16.30;99.90;;;;;;4958415;29;20051;-74
2022/09/08 01:26:46;;;;;;;142.45;61.25;;;16.30;99.90;;;;;;4959252;29;20069;-75
2022/09/08 01:29:15;;;;;;;140.57;58.33;;;16.40;99.90;;;;;;4926538;29;20090;-73
2022/09/08 01:31:43;;;;;;;142.93;59.92;;;16.40;99.90;;;;;;4958417;29;20051;-75
2022/09/08 01:34:09;;;;;;;134.60;59.25;;;16.40;99.90;;;;;;4941109;29;20161;-74
2022/09/08 01:36:35;;;;;;;139.13;60.30;;;16.40;99.90;;;;;;4925009;29;20179;-76
2022/09/08 01:39:01;;;;;;;144.77;60.83;;;16.40;99.90;;;;;;4957404;29;20055;-75
2022/09/08 01:41:27;;;;;;;145.53;60.63;;;16.50;99.90;;;;;;4940039;29;20075;-75
2022/09/08 01:43:52;;;;;;;139.17;60.83;;;16.50;99.90;;;;;;4939521;29;20382;-75
2022/09/08 01:46:18;;;;;;;151.13;62.40;;;16.50;99.90;;;;;;4957137;29;20051;-77
2022/09/08 01:48:44;;;;;;;142.47;61.20;;;16.50;99.90;;;;;;4923114;29;20412;-75
2022/09/08 01:51:10;;;;;;;143.27;61.37;;;16.50;99.90;;;;;;4908532;29;20092;-75
2022/09/08 01:53:36;;;;;;;142.55;59.78;;;16.50;99.90;;;;;;4923889;29;20920;-76
2022/09/08 01:56:05;;;;;;;140.55;60.88;;;16.50;99.90;;;;;;4956441;29;20055;-78
2022/09/08 01:58:31;;;;;;;143.82;61.05;;;16.60;99.90;;;;;;4956601;28;20082;-75
2022/09/08 02:00:57;;;;;;;139.27;60.85;;;16.60;99.90;;;;;;4939323;29;20227;-75
2022/09/08 02:03:23;;;;;;;133.03;58.80;;;16.60;99.90;;;;;;4956425;29;20040;-76
2022/09/08 02:05:49;;;;;;;132.35;58.40;;;16.60;99.90;;;;;;4939284;29;20090;-81
2022/09/08 02:08:15;;;;;;;140.52;60.72;;;16.60;99.90;;;;;;4923561;29;20138;-75
2022/09/08 02:10:40;;;;;;;140.00;59.38;;;16.60;99.90;;;;;;4939350;29;20113;-75
2022/09/08 02:13:07;;;;;;;134.05;60.10;;;16.60;99.90;;;;;;4934993;29;20051;-76
2022/09/08 02:15:32;;;;;;;137.88;59.20;;;16.60;99.90;;;;;;4936061;29;20552;-75
2022/09/08 02:17:59;;;;;;;133.57;58.70;;;16.60;99.90;;;;;;4935684;29;20059;-75
2022/09/08 02:20:26;;;;;;;143.90;58.85;;;16.60;99.90;;;;;;4937077;29;20128;-75
2022/09/08 02:22:53;;;;;;;128.18;58.15;;;16.60;99.90;;;;;;4937430;29;20047;-80
2022/09/08 02:25:19;;;;;;;;;;;16.60;99.90;;;;;;4936172;29;20139;-76
2022/09/08 02:27:45;;;;;;;126.57;55.30;;;16.60;99.90;;;;;;4936860;29;20002;-76
2022/09/08 02:30:11;;;;;;;138.05;57.70;;;16.60;99.90;;;;;;4936773;29;20103;-76
2022/09/08 02:32:37;;;;;;;130.70;57.80;;;16.60;99.90;;;;;;4935119;29;20505;-76
2022/09/08 02:35:03;;;;;;;130.90;57.73;;;16.60;99.90;;;;;;4919420;29;20481;-75
2022/09/08 02:37:29;;;;;;;139.57;58.63;;;16.60;99.90;;;;;;4935805;29;20055;-76
2022/09/08 02:39:55;;;;;;;135.27;58.90;;;16.60;99.90;;;;;;4919562;29;20055;-76
2022/09/08 02:42:23;;;;;;;138.88;58.33;;;16.60;99.90;;;;;;4936549;29;20047;-78
2022/09/08 02:44:48;;;;;;;139.60;60.70;;;16.60;99.90;;;;;;4935279;29;20182;-75
2022/09/08 02:47:14;;;;;;;137.07;58.30;;;16.60;99.90;;;;;;4919390;29;20123;-75
2022/09/08 02:49:40;;;;;;;133.23;57.77;;;16.60;99.90;;;;;;4936615;29;20189;-75
2022/09/08 02:52:06;;;;;;;136.97;59.03;;;16.70;99.90;;;;;;4936221;29;20544;-75
2022/09/08 02:54:31;;;;;;;131.97;56.47;;;16.60;99.90;;;;;;4935535;29;20043;-75
2022/09/08 02:56:57;;;;;;;143.30;59.23;;;16.60;99.90;;;;;;4934925;29;20044;-76
2022/09/08 02:59:23;;;;;;;133.57;58.47;;;16.70;99.90;;;;;;4935647;29;20051;-77
2022/09/08 03:01:49;;;;;;;131.60;57.28;;;16.70;99.90;;;;;;4935400;29;20061;-74
2022/09/08 03:04:15;;;;;;;131.10;57.57;;;16.70;99.90;;;;;;4935045;29;20130;-76
2022/09/08 03:06:41;;;;;;;138.77;58.40;;;16.70;99.90;;;;;;4935064;29;20040;-75
2022/09/08 03:09:07;;;;;;;136.37;58.90;;;16.70;99.90;;;;;;4919228;29;20069;-74
2022/09/08 03:11:33;;;;;;;137.38;59.67;;;16.70;99.90;;;;;;4934544;29;20070;-76
2022/09/08 03:14:00;;;;;;;135.18;58.60;;;16.70;99.90;;;;;;4934848;29;20091;-77
2022/09/08 03:16:27;;;;;;;137.20;58.53;;;16.70;99.90;;;;;;4935935;29;20090;-75
2022/09/08 03:18:53;;;;;;;137.40;57.83;;;16.70;99.90;;;;;;4934920;29;20047;-75
2022/09/08 03:21:20;;;;;;;;;;;16.70;99.90;;;;;;4935045;29;20082;-75
2022/09/08 03:23:46;;;;;;;138.10;57.40;;;16.80;99.90;;;;;;4934746;29;20002;-75
2022/09/08 03:26:18;;;;;;;133.63;56.75;;;16.70;99.90;;;;;;4935621;29;20051;-75
2022/09/08 03:28:44;;;;;;;134.82;56.25;;;16.70;99.90;;;;;;4935104;29;20131;-76
2022/09/08 03:31:16;;;;;;;128.75;56.78;;;16.70;99.90;;;;;;4935658;29;20051;-76
2022/09/08 03:33:43;;;;;;;133.77;56.70;;;16.70;99.90;;;;;;4935742;29;20140;-77
2022/09/08 03:36:11;;;;;;;135.15;57.50;;;16.70;99.90;;;;;;4935118;29;20051;-76
2022/09/08 03:38:37;;;;;;;145.23;59.03;;;16.60;99.90;;;;;;4936055;29;20048;-76
2022/09/08 03:41:08;;;;;;;130.15;56.63;;;16.60;99.90;;;;;;4934659;29;20126;-76
2022/09/08 03:43:35;;;;;;;136.48;58.40;;;16.50;99.90;;;;;;4919255;29;20051;-76
2022/09/08 03:46:05;;;;;;;;;;;16.50;99.90;;;;;;4934902;29;20062;-76
2022/09/08 03:48:32;;;;;;;141.88;56.47;;;16.50;99.90;;;;;;4934943;29;19966;-74
2022/09/08 03:51:06;;;;;;;;;;;16.50;99.90;;;;;;4919055;29;20138;-82
2022/09/08 03:53:32;;;;;;;139.15;58.40;;;16.50;99.90;;;;;;4936013;29;19923;-76
2022/09/08 03:55:57;;;;;;;144.63;60.55;;;16.40;99.90;;;;;;4934407;29;20058;-76
2022/09/08 03:58:23;;;;;;;148.82;59.30;;;16.50;99.90;;;;;;4934072;29;20056;-79
2022/09/08 04:00:49;;;;;;;149.90;61.03;;;16.40;99.90;;;;;;4918198;29;20076;-76
2022/09/08 04:03:15;;;;;;;153.70;62.70;;;16.40;99.90;;;;;;4934223;29;20082;-76
2022/09/08 04:05:41;;;;;;;153.90;62.37;;;16.40;99.90;;;;;;4934611;29;20055;-75
2022/09/08 04:08:07;;;;;;;149.17;62.67;;;16.40;99.90;;;;;;4935254;29;20480;-75
2022/09/08 04:10:33;;;;;;;159.65;62.00;;;16.40;99.90;;;;;;4935073;29;20538;-76
2022/09/08 04:12:59;;;;;;;152.00;61.90;;;16.40;99.90;;;;;;4950834;29;20131;-76
2022/09/08 04:15:24;;;;;;;153.13;60.58;;;16.40;99.90;;;;;;4954029;29;20404;-76
2022/09/08 04:17:50;;;;;;;158.47;61.07;;;16.30;99.90;;;;;;4922198;29;20051;-76
2022/09/08 04:20:17;;;;;;;151.77;61.80;;;16.40;99.90;;;;;;4937300;29;20127;-76
2022/09/08 04:22:43;;;;;;;158.13;62.75;;;16.40;99.90;;;;;;4937151;29;20049;-75
2022/09/08 04:25:09;;;;;;;158.68;62.83;;;16.40;99.90;;;;;;4954177;29;20130;-75
2022/09/08 04:27:35;;;;;;;164.15;63.72;;;16.30;99.90;;;;;;4954196;29;20106;-74
2022/09/08 04:30:00;;;;;;;179.73;64.90;;;16.30;99.90;;;;;;4937049;29;20058;-79
2022/09/08 04:32:26;;;;;;;180.47;65.83;;;16.20;99.90;;;;;;4936952;29;20410;-75
2022/09/08 04:34:52;;;;;;;152.30;61.43;;;16.20;99.90;;;;;;4937602;29;20047;-75
2022/09/08 04:37:18;;;;;;;163.80;62.27;;;16.20;99.90;;;;;;4958069;29;20055;-76
2022/09/08 04:39:44;;;;;;;157.07;61.03;;;16.20;99.90;;;;;;4940447;29;20043;-75
2022/09/08 04:42:10;;;;;;;163.32;63.67;;;16.20;99.90;;;;;;4940355;29;20043;-75
2022/09/08 04:44:36;;;;;;;158.27;63.67;;;16.20;99.90;;;;;;4957813;29;20051;-75
2022/09/08 04:47:02;;;;;;;167.40;65.47;;;16.20;99.90;;;;;;4957742;29;20097;-80
2022/09/08 04:49:27;;;;;;;168.50;66.20;;;16.30;99.90;;;;;;4940660;28;20098;-75
2022/09/08 04:51:53;;;;;;;159.63;63.00;;;16.30;99.90;;;;;;4957352;29;20051;-77
2022/09/08 04:54:20;;;;;;;170.07;67.27;;;16.30;99.90;;;;;;4957608;29;20083;-76
2022/09/08 04:56:46;;;;;;;170.50;64.88;;;16.40;99.90;;;;;;4925089;29;20058;-75
2022/09/08 04:59:12;;;;;;;164.32;63.88;;;16.40;99.90;;;;;;4940522;29;20051;-74
2022/09/08 05:01:38;;;;;;;162.23;63.92;;;16.40;99.90;;;;;;4940530;29;20208;-75
2022/09/08 05:04:04;;;;;;;161.30;63.67;;;16.50;99.90;;;;;;4957170;29;20495;-75
2022/09/08 05:06:32;;;;;;;167.57;65.47;;;16.50;99.90;;;;;;4939790;29;20492;-75
2022/09/08 05:08:59;;;;;;;156.90;63.55;;;16.60;99.90;;;;;;4957287;29;20051;-76
2022/09/08 05:11:27;;;;;;;168.25;65.35;;;16.60;99.90;;;;;;4957125;28;20085;-75
2022/09/08 05:13:54;;;;;;;160.13;63.75;;;16.60;99.90;;;;;;4941016;29;20066;-75
2022/09/08 05:16:23;;;;;;;173.70;66.57;;;16.60;99.90;;;;;;4924281;29;20063;-74
2022/09/08 05:18:58;;;;;;;174.57;65.32;;;16.60;99.90;;;;;;4940074;29;20061;-77
2022/09/08 05:21:25;;;;;;;169.52;65.28;;;16.60;99.90;;;;;;4941007;29;20055;-76
2022/09/08 05:23:52;;;;;;;187.70;69.50;;;16.60;99.90;;;;;;4957716;29;20436;-77
2022/09/08 05:26:19;;;;;;;177.63;66.63;;;16.60;99.90;;;;;;4957503;29;20054;-77
2022/09/08 05:28:45;;;;;;;220.98;69.25;;;16.50;99.90;;;;;;4924149;29;20058;-74
2022/09/08 05:31:14;;;;;;;235.07;74.73;;;16.50;99.90;;;;;;4957119;29;20047;-75
2022/09/08 05:33:40;;;;;;;253.25;77.15;;;16.40;99.90;;;;;;4939584;29;20050;-74
2022/09/08 05:36:11;;;;;;;249.93;73.57;;;16.40;99.90;;;;;;4957184;29;20051;-76
2022/09/08 05:38:37;;;;;;;242.15;76.05;;;16.40;99.90;;;;;;4957623;29;20058;-75
2022/09/08 05:41:03;;;;;;;218.85;74.28;;;16.30;99.90;;;;;;4956986;29;20162;-77
2022/09/08 05:43:30;;;;;;;252.40;74.30;;;16.30;99.90;;;;;;4957050;29;20043;-74
2022/09/08 05:45:56;;;;;;;253.48;76.15;;;16.30;99.90;;;;;;4939954;28;20130;-73
2022/09/08 05:48:21;;;;;;;268.67;79.10;;;16.30;99.90;;;;;;4956175;29;20130;-74
2022/09/08 05:50:47;;;;;;;276.63;78.17;;;16.40;99.90;;;;;;4956705;29;20054;-74
2022/09/08 05:53:13;;;;;;;260.17;78.38;;;16.40;99.90;;;;;;4956406;29;20134;-81
2022/09/08 05:55:42;;;;;;;262.35;77.35;;;16.40;99.90;;;;;;4957352;29;20049;-78
2022/09/08 05:58:10;;;;;;;252.43;77.80;;;16.40;99.90;;;;;;4940181;29;20460;-73
2022/09/08 06:00:37;;;;;;;241.45;74.30;;;16.40;99.90;;;;;;4956546;28;20135;-75
2022/09/08 06:03:04;;;;;;;248.45;72.85;;;16.40;99.90;;;;;;4956396;29;20047;-75
2022/09/08 06:05:29;;;;;;;250.77;74.10;;;16.40;99.90;;;;;;4939773;29;20114;-75
2022/09/08 06:07:55;;;;;;;283.37;75.20;;;16.40;99.90;;;;;;4957609;29;20047;-76
2022/09/08 06:10:22;;;;;;;317.63;79.20;;;16.40;99.90;;;;;;4939783;29;20051;-76
2022/09/08 06:12:48;;;;;;;251.20;75.13;;;16.40;99.90;;;;;;4938939;29;20357;-75
2022/09/08 06:15:13;;;;;;;251.23;74.60;;;16.40;99.90;;;;;;4956953;29;20107;-81
2022/09/08 06:17:39;;;;;;;311.92;76.20;;;16.40;99.90;;;;;;4956575;29;20059;-74
2022/09/08 06:20:06;;;;;;;262.07;73.97;;;16.40;99.90;;;;;;4923041;29;20054;-74
2022/09/08 06:22:33;;;;;;;244.13;74.93;;;16.40;99.90;;;;;;4956318;29;20044;-75
2022/09/08 06:24:59;;;;;;;;;;;16.40;99.90;;;;;;4924171;29;20182;-75
2022/09/08 06:27:43;;;;;;;247.18;73.18;;;16.50;99.90;;;;;;4955663;29;20401;-74
2022/09/08 06:30:15;;;;;;;276.23;72.97;;;16.50;99.90;;;;;;4939207;29;20077;-75
2022/09/08 06:32:57;;;;;;;233.88;69.88;;;16.50;99.90;;;;;;4938622;29;20047;-75
2022/09/08 06:35:50;;;;;;;256.40;74.13;;;16.50;99.90;;;;;;4956385;29;20130;-75
2022/09/08 06:38:33;;;;;;;247.48;71.40;;;16.50;99.90;;;;;;4938576;29;20122;-75
2022/09/08 06:41:21;;;;;;;239.43;71.15;;;16.50;99.90;;;;;;4939223;29;20384;-77
2022/09/08 06:43:51;;;;;;;230.35;71.88;;;16.50;99.90;;;;;;4956412;29;20043;-76
2022/09/08 06:46:21;;;;;;;254.77;74.10;;;16.50;99.90;;;;;;4956341;29;20047;-75
2022/09/08 06:48:52;;;;;;;239.18;73.43;;;16.50;99.90;;;;;;4938555;29;20043;-73
2022/09/08 06:51:42;;;;;;;247.93;72.30;;;16.60;99.90;;;;;;4924401;29;20054;-74
2022/09/08 06:54:08;;;;;;;205.27;65.43;;;16.60;99.90;;;;;;4939161;29;20455;-73
2022/09/08 06:57:05;;;;;;;204.10;65.32;;;16.50;99.90;;;;;;4922855;29;20055;-70
2022/09/08 07:00:02;;;;;;;196.10;63.90;;;16.50;99.90;;;;;;4956053;28;20043;-76
2022/09/08 07:02:39;;;;;;;181.63;63.60;;;16.50;99.90;;;;;;4938394;29;20138;-74
2022/09/08 07:05:31;;;;;;;195.30;63.70;;;16.50;99.90;;;;;;4938592;29;20057;-74
2022/09/08 07:08:24;;;;;;;169.00;59.90;;;16.50;99.90;;;;;;4923346;29;20062;-78
2022/09/08 07:11:28;;;;;;;162.98;59.05;;;16.50;99.90;;;;;;4938766;29;20404;-75
2022/09/08 07:14:04;;;;;;;159.55;60.80;;;16.50;99.90;;;;;;4900648;29;20048;-76
2022/09/08 07:16:41;;;;;;;190.85;63.72;;;16.50;99.90;;;;;;4917409;29;20112;-75
2022/09/08 07:19:35;;;;;;;172.77;61.53;;;16.50;99.90;;;;;;4915999;29;20080;-75
2022/09/08 07:22:15;;;;;;;157.20;54.63;;;16.50;99.90;;;;;;4916849;29;20083;-76
2022/09/08 07:24:43;;;;;;;181.57;64.00;;;16.50;99.90;;;;;;4916073;29;20048;-76
2022/09/08 07:27:13;;;;;;;174.63;60.80;;;16.50;99.90;;;;;;4917672;29;20055;-76
2022/09/08 07:29:51;;;;;;;181.80;61.55;;;16.50;99.90;;;;;;4917545;29;20052;-76
2022/09/08 07:32:25;;;;;;;202.65;62.08;;;16.50;99.90;;;;;;4915735;29;20446;-75
2022/09/08 07:35:00;;;;;;;179.32;59.70;;;16.60;99.90;;;;;;4916400;29;20051;-75
2022/09/08 07:37:49;;;;;;;155.52;53.05;;;16.60;99.90;;;;;;4915914;29;20075;-76
2022/09/08 07:40:40;;;;;;;145.52;50.65;;;16.60;99.90;;;;;;4917547;29;20056;-78
2022/09/08 07:43:11;;;;;;;142.65;48.47;;;16.60;99.90;;;;;;4900048;29;20066;-76
2022/09/08 07:45:48;;;;;;;115.45;43.10;;;16.60;99.90;;;;;;4899840;29;20089;-75
2022/09/08 07:48:23;;;;;;;;;;;16.60;99.90;;;;;;4917244;29;20126;-76
2022/09/08 07:51:12;;;;;;;118.50;41.17;;;16.60;99.90;;;;;;4915637;29;19933;-76
2022/09/08 07:54:01;;;;;;;133.38;44.83;;;16.60;99.90;;;;;;4915852;29;20059;-76
2022/09/08 07:56:30;;;;;;;107.22;42.25;;;16.60;99.90;;;;;;4916407;29;20048;-77
2022/09/08 07:59:19;;;;;;;102.53;38.25;;;16.60;99.90;;;;;;4916948;29;20048;-75
2022/09/08 08:02:24;;;;;;;99.40;37.75;;;16.60;99.90;;;;;;4917391;29;20044;-75
2022/09/08 08:05:17;;;;;;;102.35;37.78;;;16.60;99.90;;;;;;4916246;29;20102;-76
2022/09/08 08:07:59;;;;;;;86.82;34.88;;;16.60;99.90;;;;;;4917463;29;20051;-77
2022/09/08 08:10:30;;;;;;;91.90;35.65;;;16.60;99.90;;;;;;4916499;29;20052;-75
2022/09/08 08:13:14;;;;;;;92.63;35.42;;;16.60;99.90;;;;;;4922746;29;20059;-75
2022/09/08 08:15:48;;;;;;;90.15;35.17;;;16.60;99.90;;;;;;4935837;29;20468;-75
2022/09/08 08:18:48;;;;;;;101.40;36.47;;;16.70;99.90;;;;;;4935504;29;20051;-76
2022/09/08 08:21:23;;;;;;;85.32;34.70;;;16.70;99.90;;;;;;4935946;29;20056;-76
2022/09/08 08:23:58;;;;;;;86.32;33.25;;;16.70;99.90;;;;;;4939167;29;20184;-75
2022/09/08 08:26:45;;;;;;;75.28;30.42;;;16.70;99.90;;;;;;4937802;29;20052;-76
2022/09/08 08:29:32;;;;;;;61.03;24.20;;;16.70;99.90;;;;;;4937385;29;20123;-76
2022/09/08 08:32:12;;;;;;;38.40;17.70;;;16.70;99.90;;;;;;4936731;29;20056;-79
2022/09/08 08:34:47;;;;;;;46.58;17.88;;;16.70;99.90;;;;;;4919446;29;20060;-75
2022/09/08 08:37:21;;;;;;;41.08;16.85;;;16.60;99.90;;;;;;4934418;29;20066;-75
2022/09/08 08:39:52;;;;;;;35.83;15.65;;;16.60;99.90;;;;;;4934123;29;20094;-76
2022/09/08 08:42:39;;;;;;;35.83;15.52;;;16.60;99.90;;;;;;4934014;29;20039;-75
2022/09/08 08:45:24;;;;;;;37.90;14.48;;;16.60;99.90;;;;;;4936390;29;20448;-76
2022/09/08 08:48:23;;;;;;;36.83;15.23;;;16.60;99.90;;;;;;4934153;29;20183;-75
2022/09/08 08:51:15;;;;;;;34.25;15.40;;;16.50;99.90;;;;;;4950680;28;20052;-76
2022/09/08 08:54:02;;;;;;;34.25;15.02;;;16.60;99.90;;;;;;4933647;29;20396;-76
2022/09/08 08:56:34;;;;;;;38.53;16.92;;;16.60;99.90;;;;;;4934782;29;20530;-76
2022/09/08 08:59:11;;;;;;;38.55;16.63;;;16.60;99.90;;;;;;4935482;29;20416;-76
2022/09/08 09:01:54;;;;;;;41.65;17.98;;;16.60;99.90;;;;;;4934414;29;20047;-75
2022/09/08 09:04:48;;;;;;;40.78;17.33;;;16.70;99.90;;;;;;4949556;29;20489;-76
2022/09/08 09:07:51;;;;;;;39.25;16.52;;;16.70;99.90;;;;;;4934731;28;20103;-76
2022/09/08 09:10:36;;;;;;;35.40;15.40;;;16.70;99.90;;;;;;4934570;29;20177;-75
2022/09/08 09:13:32;;;;;;;38.10;15.48;;;16.70;99.90;;;;;;4933055;29;20068;-76
2022/09/08 09:16:04;;;;;;;33.00;15.10;;;16.70;99.90;;;;;;4935417;29;20063;-76
2022/09/08 09:18:42;;;;;;;30.33;13.90;;;16.60;99.90;;;;;;4917477;29;20047;-77
2022/09/08 09:21:37;;;;;;;27.25;12.60;;;16.60;99.90;;;;;;4935900;29;20055;-76
2022/09/08 09:24:37;;;;;;;25.40;12.25;;;16.60;99.90;;;;;;4938284;29;20048;-76
2022/09/08 09:27:30;;;;;;;22.35;10.68;;;16.60;99.90;;;;;;4930633;29;20118;-76
2022/09/08 09:30:23;;;;;;;22.70;10.10;;;16.50;99.90;;;;;;4938513;29;20112;-77
2022/09/08 09:33:15;;;;;;;22.63;9.63;;;16.50;99.90;;;;;;4935238;29;20055;-78
2022/09/08 09:35:41;;;;;;;23.63;9.63;;;16.50;99.90;;;;;;4921883;29;20199;-76
2022/09/08 09:38:24;;;;;;;22.70;9.43;;;16.50;99.90;;;;;;4937903;29;20126;-77
2022/09/08 09:41:28;;;;;;;18.58;7.97;;;16.60;99.90;;;;;;4937143;29;20056;-76
2022/09/08 09:43:57;;;;;;;20.83;7.53;;;16.50;99.90;;;;;;4914503;29;20063;-78
2022/09/08 09:46:23;;;;;;;17.55;6.65;;;16.60;99.90;;;;;;4937763;29;20091;-78
2022/09/08 09:49:08;;;;;;;17.77;7.30;;;16.60;99.90;;;;;;4937588;29;20473;-78
2022/09/08 09:51:39;;;;;;;19.52;7.32;;;16.60;99.90;;;;;;4937401;29;20496;-79
2022/09/08 09:54:49;;;;;;;19.73;7.60;;;16.50;99.90;;;;;;4936681;29;20511;-77
2022/09/08 09:57:42;;;;;;;20.63;8.20;;;16.50;99.90;;;;;;4936380;29;20066;-75
2022/09/08 10:00:17;;;;;;;18.13;8.07;;;16.50;99.90;;;;;;4937593;29;20059;-76
2022/09/08 10:02:42;;;;;;;14.82;7.30;;;16.50;99.90;;;;;;4937510;29;20052;-80
2022/09/08 10:05:25;;;;;;;21.17;9.30;;;16.60;99.90;;;;;;4937339;29;20403;-75
2022/09/08 10:08:03;;;;;;;22.17;10.95;;;16.60;99.90;;;;;;4937440;29;20063;-77
2022/09/08 10:10:39;;;;;;;20.50;9.90;;;16.50;99.90;;;;;;4937110;29;20141;-76
2022/09/08 10:13:39;;;;;;;24.48;10.52;;;16.60;99.90;;;;;;4935723;29;20059;-77
2022/09/08 10:16:28;;;;;;;23.85;9.70;;;16.60;99.90;;;;;;4920898;29;20051;-76
2022/09/08 10:19:00;;;;;;;23.70;10.25;;;16.60;99.90;;;;;;4935942;29;20083;-76
2022/09/08 10:21:26;;;;;;;23.30;9.27;;;16.50;99.90;;;;;;4936874;29;20047;-77
2022/09/08 10:24:15;;;;;;;24.88;9.93;;;16.50;99.90;;;;;;4937115;29;20047;-78
2022/09/08 10:26:59;;;;;;;19.65;10.05;;;16.50;99.90;;;;;;4920473;29;20162;-80
2022/09/08 10:29:30;;;;;;;20.00;9.80;;;16.50;99.90;;;;;;4937011;29;20055;-76
2022/09/08 10:32:32;;;;;;;21.40;10.35;;;16.60;99.90;;;;;;4936639;29;20043;-81
2022/09/08 10:35:09;;;;;;;22.48;9.73;;;16.50;99.90;;;;;;4918814;29;20047;-77
2022/09/08 10:38:07;;;;;;;19.27;9.10;;;16.60;99.90;;;;;;4936783;29;20055;-76
2022/09/08 10:40:54;;;;;;;20.80;9.60;;;16.60;99.90;;;;;;4936797;29;20052;-76
2022/09/08 10:43:38;;;;;;;19.52;8.50;;;16.60;99.90;;;;;;4937154;29;20051;-76
2022/09/08 10:46:33;;;;;;;21.08;9.32;;;16.60;99.90;;;;;;4937173;29;20059;-78
2022/09/08 10:49:13;;;;;;;25.17;9.65;;;16.60;99.90;;;;;;4936499;29;20078;-77
2022/09/08 10:51:39;;;;;;;20.05;9.70;;;16.60;99.90;;;;;;4936244;29;20182;-76
2022/09/08 10:54:42;;;;;;;24.45;9.88;;;16.60;99.90;;;;;;4937036;29;20130;-74
2022/09/08 10:57:59;;;;;;;24.48;10.05;;;16.70;99.90;;;;;;4936244;29;20052;-76
2022/09/08 11:00:30;;;;;;;20.90;10.15;;;16.70;99.90;;;;;;4934744;29;20118;-75
2022/09/08 11:03:42;;;;;;;20.80;9.65;;;16.70;99.90;;;;;;4934971;29;20094;-75
2022/09/08 11:06:17;;;;;;;23.63;9.88;;;16.80;99.90;;;;;;4918881;29;20063;-74
2022/09/08 11:09:05;;;;;;;23.15;9.20;;;16.80;99.90;;;;;;4936301;29;20044;-74
2022/09/08 11:11:58;;;;;;;22.10;9.13;;;16.80;99.90;;;;;;4936709;29;20047;-76
2022/09/08 11:15:06;;;;;;;20.08;9.15;;;16.80;99.90;;;;;;4955385;29;20074;-75
2022/09/08 11:17:43;;;;;;;19.17;8.45;;;16.80;99.90;;;;;;4922491;29;20070;-75
2022/09/08 11:20:15;;;;;;;20.45;9.00;;;16.80;99.90;;;;;;4922845;29;20122;-73
2022/09/08 11:23:03;;;;;;;25.35;10.70;;;16.80;99.90;;;;;;4922384;29;20055;-75
2022/09/08 11:25:37;;;;;;;24.65;9.88;;;16.90;99.90;;;;;;4955199;29;20053;-74
2022/09/08 11:28:04;;;;;;;21.23;9.50;;;16.90;99.90;;;;;;4938185;28;20047;-74
2022/09/08 11:30:54;;;;;;;33.22;10.13;;;17.00;99.90;;;;;;4922344;29;20129;-74
2022/09/08 11:33:41;;;;;;;24.60;10.40;;;17.00;99.90;;;;;;4937627;29;20149;-74
2022/09/08 11:36:17;;;;;;;23.85;10.38;;;17.10;99.90;;;;;;4954915;29;20047;-74
2022/09/08 11:38:58;;;;;;;22.88;10.65;;;17.20;99.90;;;;;;4938045;29;20059;-75
2022/09/08 11:41:30;;;;;;;27.92;11.20;;;17.30;99.90;;;;;;4922441;29;20051;-74
2022/09/08 11:44:33;;;;;;;26.60;11.80;;;17.30;99.90;;;;;;4954843;28;20133;-75
2022/09/08 11:47:13;;;;;;;28.67;11.98;;;17.40;99.90;;;;;;4937862;29;20047;-81
2022/09/08 11:49:51;;;;;;;25.08;12.23;;;17.50;99.90;;;;;;4954829;29;20101;-76
2022/09/08 11:52:17;;;;;;;30.23;12.55;;;17.60;99.90;;;;;;4954986;29;20077;-75
2022/09/08 11:55:02;;;;;;;29.43;13.77;;;17.80;99.90;;;;;;4955000;29;20043;-75
2022/09/08 11:57:48;;;;;;;31.70;13.30;;;17.80;99.90;;;;;;4937697;29;20130;-74
2022/09/08 12:00:57;;;;;;;33.37;14.60;;;17.90;99.90;;;;;;4938936;29;20432;-75
2022/09/08 12:03:31;;;;;;;31.00;14.35;;;17.90;99.90;;;;;;4954028;28;20182;-76
2022/09/08 12:06:17;;;;;;;33.15;14.55;;;18.00;99.90;;;;;;4938220;29;20047;-74
2022/09/08 12:09:02;;;;;;;31.48;14.20;;;18.00;99.90;;;;;;4955586;29;20062;-76
2022/09/08 12:11:46;;;;;;;34.88;15.23;;;18.10;99.90;;;;;;4921869;29;20062;-76
2022/09/08 12:14:28;;;;;;;33.80;15.90;;;18.10;99.90;;;;;;4937595;29;20138;-76
2022/09/08 12:17:17;;;;;;;38.78;16.38;;;18.20;99.90;;;;;;4938528;29;20375;-77
2022/09/08 12:20:13;;;;;;;34.22;16.52;;;18.30;99.90;;;;;;4954952;28;20134;-75
2022/09/08 12:23:03;;;;;;;35.10;15.38;;;18.30;99.90;;;;;;4921999;29;20134;-76
2022/09/08 12:25:50;;;;;;;33.90;16.63;;;18.50;99.90;;;;;;4954764;29;20053;-75
2022/09/08 12:28:37;;;;;;;39.22;17.10;;;18.60;99.90;;;;;;4954752;29;20043;-75
2022/09/08 12:31:31;;;;;;;33.95;16.75;;;18.70;99.90;;;;;;4922459;29;20077;-75
2022/09/08 12:34:09;;;;;;;36.00;15.68;;;18.70;99.90;;;;;;4954563;29;20058;-78
2022/09/08 12:36:46;;;;;;;34.30;16.80;;;18.80;99.90;;;;;;4955312;29;20106;-75
2022/09/08 12:39:24;;;;;;;;;;;18.70;99.90;;;;;;4938831;29;20439;-75
2022/09/08 12:42:08;;;;;;;36.42;15.75;;;18.80;99.90;;;;;;4954721;29;19926;-76
2022/09/08 12:45:03;;;;;;;39.47;17.33;;;18.90;99.90;;;;;;4922595;29;20043;-79
2022/09/08 12:48:02;;;;;;;33.50;16.27;;;18.90;99.90;;;;;;4935086;29;20507;-76
2022/09/08 12:50:53;;;;;;;34.17;15.82;;;19.10;99.90;;;;;;4949688;28;20058;-77
2022/09/08 12:53:40;;;;;;;36.58;16.65;;;19.20;99.90;;;;;;4954854;29;20423;-77
2022/09/08 12:56:25;;;;;;;34.30;16.05;;;19.20;99.90;;;;;;4938367;29;20051;-77
2022/09/08 12:59:18;;;;;;;34.35;16.17;;;19.40;99.90;;;;;;4941087;29;20051;-76
2022/09/08 13:02:07;;;;;;;36.33;16.48;;;19.40;99.90;;;;;;4941060;29;20047;-76
2022/09/08 13:04:55;;;;;;;35.70;16.35;;;19.40;99.90;;;;;;4918903;29;20070;-77
2022/09/08 13:08:00;;;;;;;38.80;16.27;;;19.50;99.90;;;;;;4958579;29;20064;-83
2022/09/08 13:10:35;;;;;;;29.95;14.38;;;19.60;99.90;;;;;;4925950;29;20058;-76
2022/09/08 13:13:37;;;;;;;32.60;14.60;;;19.60;99.90;;;;;;4924404;29;20059;-76
2022/09/08 13:16:18;;;;;;;33.58;14.88;;;19.70;99.90;;;;;;4956568;29;20062;-78